sensor_id;sensor_type;location;lat;lon;timestamp;pressure;altitude;pressure_sealevel;temperature;humidity
68329;BME280;55182;56.864;60.554;2023-04-15T00:02:14;78028.16;;;-143.60;48.52
68329;BME280;55182;56.864;60.554;2023-04-15T00:04:40;78038.22;;;-143.60;48.41
68329;BME280;55182;56.864;60.554;2023-04-15T00:07:05;78028.16;;;-143.60;48.86
68329;BME280;55182;56.864;60.554;2023-04-15T00:09:31;78040.22;;;-143.60;49.20
68329;BME280;55182;56.864;60.554;2023-04-15T00:11:57;78034.19;;;-143.60;49.62
68329;BME280;55182;56.864;60.554;2023-04-15T00:14:22;78044.25;;;-143.60;49.35
68329;BME280;55182;56.864;60.554;2023-04-15T00:16:47;78046.25;;;-143.60;49.15
68329;BME280;55182;56.864;60.554;2023-04-15T00:19:13;78048.28;;;-143.60;49.60
68329;BME280;55182;56.864;60.554;2023-04-15T00:21:38;78042.22;;;-143.60;49.56
68329;BME280;55182;56.864;60.554;2023-04-15T00:24:04;78042.22;;;-143.60;49.75
68329;BME280;55182;56.864;60.554;2023-04-15T00:26:29;78034.19;;;-143.60;49.47
68329;BME280;55182;56.864;60.554;2023-04-15T00:28:55;78042.22;;;-143.60;49.22
68329;BME280;55182;56.864;60.554;2023-04-15T00:31:21;78050.28;;;-143.60;49.33
68329;BME280;55182;56.864;60.554;2023-04-15T00:33:46;78052.28;;;-143.60;49.19
68329;BME280;55182;56.864;60.554;2023-04-15T00:36:11;78068.38;;;-143.60;49.56
68329;BME280;55182;56.864;60.554;2023-04-15T00:38:37;78076.41;;;-143.60;49.74
68329;BME280;55182;56.864;60.554;2023-04-15T00:41:02;78080.44;;;-143.60;49.92
68329;BME280;55182;56.864;60.554;2023-04-15T00:43:28;78088.47;;;-143.60;49.89
68329;BME280;55182;56.864;60.554;2023-04-15T00:45:53;78100.53;;;-143.60;50.26
68329;BME280;55182;56.864;60.554;2023-04-15T00:48:20;78104.56;;;-143.60;50.54
68329;BME280;55182;56.864;60.554;2023-04-15T00:50:46;78120.66;;;-143.60;50.59
68329;BME280;55182;56.864;60.554;2023-04-15T00:53:12;78134.72;;;-143.60;51.06
68329;BME280;55182;56.864;60.554;2023-04-15T00:55:37;78132.72;;;-143.60;51.11
68329;BME280;55182;56.864;60.554;2023-04-15T00:58:03;78140.75;;;-143.60;51.60
68329;BME280;55182;56.864;60.554;2023-04-15T01:00:29;78142.75;;;-143.60;51.33
68329;BME280;55182;56.864;60.554;2023-04-15T01:02:54;78146.78;;;-143.60;51.71
68329;BME280;55182;56.864;60.554;2023-04-15T01:05:20;78140.75;;;-143.60;51.91
68329;BME280;55182;56.864;60.554;2023-04-15T01:07:46;78138.75;;;-143.60;52.16
68329;BME280;55182;56.864;60.554;2023-04-15T01:10:12;78122.66;;;-143.60;51.27
68329;BME280;55182;56.864;60.554;2023-04-15T01:12:37;78112.59;;;-143.60;51.39
68329;BME280;55182;56.864;60.554;2023-04-15T01:15:02;78092.50;;;-143.60;50.72
68329;BME280;55182;56.864;60.554;2023-04-15T01:17:28;78086.47;;;-143.60;50.69
68329;BME280;55182;56.864;60.554;2023-04-15T01:19:54;78082.44;;;-143.60;50.66
68329;BME280;55182;56.864;60.554;2023-04-15T01:22:21;78076.41;;;-143.60;50.32
68329;BME280;55182;56.864;60.554;2023-04-15T01:24:54;78066.38;;;-143.60;50.33
68329;BME280;55182;56.864;60.554;2023-04-15T01:27:22;78064.34;;;-143.60;50.25
68329;BME280;55182;56.864;60.554;2023-04-15T01:29:48;78062.34;;;-143.60;50.07
68329;BME280;55182;56.864;60.554;2023-04-15T01:32:14;78064.34;;;-143.60;49.92
68329;BME280;55182;56.864;60.554;2023-04-15T01:34:39;78060.34;;;-143.60;49.78
68329;BME280;55182;56.864;60.554;2023-04-15T01:37:04;78052.28;;;-143.60;49.57
68329;BME280;55182;56.864;60.554;2023-04-15T01:39:30;78052.28;;;-143.60;49.10
68329;BME280;55182;56.864;60.554;2023-04-15T01:41:56;78048.28;;;-143.60;49.35
68329;BME280;55182;56.864;60.554;2023-04-15T01:44:22;78044.25;;;-143.60;49.24
68329;BME280;55182;56.864;60.554;2023-04-15T01:46:48;78042.22;;;-143.60;49.52
68329;BME280;55182;56.864;60.554;2023-04-15T01:49:13;78026.16;;;-143.60;49.12
68329;BME280;55182;56.864;60.554;2023-04-15T01:51:39;78024.16;;;-143.60;48.65
68329;BME280;55182;56.864;60.554;2023-04-15T01:54:04;78016.09;;;-143.60;49.14
68329;BME280;55182;56.864;60.554;2023-04-15T01:56:30;78012.09;;;-143.60;49.13
68329;BME280;55182;56.864;60.554;2023-04-15T01:58:56;78000.03;;;-143.60;48.90
68329;BME280;55182;56.864;60.554;2023-04-15T02:01:21;77991.97;;;-143.60;49.44
68329;BME280;55182;56.864;60.554;2023-04-15T02:03:47;77989.97;;;-143.60;49.16
68329;BME280;55182;56.864;60.554;2023-04-15T02:06:14;77989.97;;;-143.60;48.95
68329;BME280;55182;56.864;60.554;2023-04-15T02:08:39;77977.91;;;-143.60;49.46
68329;BME280;55182;56.864;60.554;2023-04-15T02:11:06;77971.88;;;-143.60;48.79
68329;BME280;55182;56.864;60.554;2023-04-15T02:13:31;77975.91;;;-143.60;49.10
68329;BME280;55182;56.864;60.554;2023-04-15T02:15:57;77975.91;;;-143.60;49.46
68329;BME280;55182;56.864;60.554;2023-04-15T02:18:23;77969.88;;;-143.60;49.86
68329;BME280;55182;56.864;60.554;2023-04-15T02:20:49;77963.84;;;-143.60;49.10
68329;BME280;55182;56.864;60.554;2023-04-15T02:23:15;77955.78;;;-143.60;49.56
68329;BME280;55182;56.864;60.554;2023-04-15T02:25:42;77959.81;;;-143.60;50.13
68329;BME280;55182;56.864;60.554;2023-04-15T02:28:08;77959.81;;;-143.60;49.88
68329;BME280;55182;56.864;60.554;2023-04-15T02:30:33;77955.78;;;-143.60;50.67
68329;BME280;55182;56.864;60.554;2023-04-15T02:33:02;77951.78;;;-143.60;50.60
68329;BME280;55182;56.864;60.554;2023-04-15T02:35:27;77943.72;;;-143.60;50.84
68329;BME280;55182;56.864;60.554;2023-04-15T02:37:54;77935.69;;;-143.60;49.88
68329;BME280;55182;56.864;60.554;2023-04-15T02:40:19;77907.53;;;-143.60;50.44
68329;BME280;55182;56.864;60.554;2023-04-15T02:42:45;77907.53;;;-143.60;50.35
68329;BME280;55182;56.864;60.554;2023-04-15T02:45:13;77909.56;;;-143.60;50.09
68329;BME280;55182;56.864;60.554;2023-04-15T02:47:40;77889.44;;;-143.60;50.36
68329;BME280;55182;56.864;60.554;2023-04-15T02:50:07;77879.41;;;-143.60;49.75
68329;BME280;55182;56.864;60.554;2023-04-15T02:52:32;77877.38;;;-143.60;48.84
68329;BME280;55182;56.864;60.554;2023-04-15T02:54:58;77859.28;;;-143.60;48.83
68329;BME280;55182;56.864;60.554;2023-04-15T02:57:23;77861.31;;;-143.60;48.41
68329;BME280;55182;56.864;60.554;2023-04-15T02:59:49;77863.31;;;-143.60;48.50
68329;BME280;55182;56.864;60.554;2023-04-15T03:02:14;77851.25;;;-143.60;47.79
68329;BME280;55182;56.864;60.554;2023-04-15T03:04:40;77843.22;;;-143.60;47.53
68329;BME280;55182;56.864;60.554;2023-04-15T03:07:05;77833.16;;;-143.60;47.31
68329;BME280;55182;56.864;60.554;2023-04-15T03:09:31;77817.06;;;-143.60;47.27
68329;BME280;55182;56.864;60.554;2023-04-15T03:11:59;77819.09;;;-143.60;47.30
68329;BME280;55182;56.864;60.554;2023-04-15T03:14:24;77809.03;;;-143.60;47.26
68329;BME280;55182;56.864;60.554;2023-04-15T03:16:50;77809.03;;;-143.60;46.88
68329;BME280;55182;56.864;60.554;2023-04-15T03:19:16;77807.03;;;-143.60;46.37
68329;BME280;55182;56.864;60.554;2023-04-15T03:21:42;77796.97;;;-143.60;46.83
68329;BME280;55182;56.864;60.554;2023-04-15T03:24:08;77788.94;;;-143.60;46.62
68329;BME280;55182;56.864;60.554;2023-04-15T03:26:33;77770.84;;;-143.60;46.45
68329;BME280;55182;56.864;60.554;2023-04-15T03:29:04;77762.78;;;-143.60;46.62
68329;BME280;55182;56.864;60.554;2023-04-15T03:31:29;77756.75;;;-143.60;46.15
68329;BME280;55182;56.864;60.554;2023-04-15T03:33:54;77740.69;;;-143.60;45.62
68329;BME280;55182;56.864;60.554;2023-04-15T03:36:20;77730.63;;;-143.60;44.99
68329;BME280;55182;56.864;60.554;2023-04-15T03:38:45;77716.56;;;-143.60;44.46
68329;BME280;55182;56.864;60.554;2023-04-15T03:41:11;77706.50;;;-143.60;44.43
68329;BME280;55182;56.864;60.554;2023-04-15T03:43:37;77686.41;;;-143.60;44.41
68329;BME280;55182;56.864;60.554;2023-04-15T03:46:02;77674.34;;;-143.60;44.10
68329;BME280;55182;56.864;60.554;2023-04-15T03:48:28;77670.31;;;-143.60;44.37
68329;BME280;55182;56.864;60.554;2023-04-15T03:50:53;77664.28;;;-143.60;44.05
68329;BME280;55182;56.864;60.554;2023-04-15T03:53:19;77644.19;;;-143.60;43.43
68329;BME280;55182;56.864;60.554;2023-04-15T03:55:45;77640.16;;;-143.60;42.88
68329;BME280;55182;56.864;60.554;2023-04-15T03:58:11;77626.09;;;-143.60;42.45
68329;BME280;55182;56.864;60.554;2023-04-15T04:00:36;77608.00;;;-143.60;41.27
68329;BME280;55182;56.864;60.554;2023-04-15T04:03:01;77589.91;;;-143.60;40.26
68329;BME280;55182;56.864;60.554;2023-04-15T04:05:27;77579.88;;;-143.60;40.45
68329;BME280;55182;56.864;60.554;2023-04-15T04:07:52;77569.81;;;-143.60;40.75
68329;BME280;55182;56.864;60.554;2023-04-15T04:10:18;77557.75;;;-143.60;40.11
68329;BME280;55182;56.864;60.554;2023-04-15T04:12:43;77563.78;;;-143.60;39.92
68329;BME280;55182;56.864;60.554;2023-04-15T04:15:09;77561.78;;;-143.60;39.59
68329;BME280;55182;56.864;60.554;2023-04-15T04:17:34;77553.72;;;-143.60;39.06
68329;BME280;55182;56.864;60.554;2023-04-15T04:20:00;77537.66;;;-143.60;38.95
68329;BME280;55182;56.864;60.554;2023-04-15T04:22:25;77527.59;;;-143.60;38.13
68329;BME280;55182;56.864;60.554;2023-04-15T04:24:51;77505.50;;;-143.60;36.97
68329;BME280;55182;56.864;60.554;2023-04-15T04:27:16;77493.44;;;-143.60;35.55
68329;BME280;55182;56.864;60.554;2023-04-15T04:29:41;77475.34;;;-143.60;35.11
68329;BME280;55182;56.864;60.554;2023-04-15T04:32:07;77465.28;;;-143.60;35.16
68329;BME280;55182;56.864;60.554;2023-04-15T04:34:32;77451.22;;;-143.60;35.30
68329;BME280;55182;56.864;60.554;2023-04-15T04:36:58;77427.09;;;-143.60;35.33
68329;BME280;55182;56.864;60.554;2023-04-15T04:39:24;77427.09;;;-143.60;35.08
68329;BME280;55182;56.864;60.554;2023-04-15T04:41:49;77425.09;;;-143.60;35.31
68329;BME280;55182;56.864;60.554;2023-04-15T04:44:15;77413.03;;;-143.60;35.23
68329;BME280;55182;56.864;60.554;2023-04-15T04:46:40;77392.91;;;-143.60;35.05
68329;BME280;55182;56.864;60.554;2023-04-15T04:49:05;77386.88;;;-143.60;34.82
68329;BME280;55182;56.864;60.554;2023-04-15T04:51:31;77388.91;;;-143.60;35.40
68329;BME280;55182;56.864;60.554;2023-04-15T04:53:56;77388.91;;;-143.60;34.89
68329;BME280;55182;56.864;60.554;2023-04-15T04:56:22;77376.84;;;-143.60;35.33
68329;BME280;55182;56.864;60.554;2023-04-15T04:58:47;77374.81;;;-143.60;34.52
68329;BME280;55182;56.864;60.554;2023-04-15T05:01:13;77360.75;;;-143.60;33.81
68329;BME280;55182;56.864;60.554;2023-04-15T05:03:38;77346.69;;;-143.60;33.57
68329;BME280;55182;56.864;60.554;2023-04-15T05:06:04;77346.69;;;-143.60;33.27
68329;BME280;55182;56.864;60.554;2023-04-15T05:08:29;77342.66;;;-143.60;33.40
68329;BME280;55182;56.864;60.554;2023-04-15T05:10:54;77340.66;;;-143.60;33.31
68329;BME280;55182;56.864;60.554;2023-04-15T05:13:20;77338.66;;;-143.60;34.04
68329;BME280;55182;56.864;60.554;2023-04-15T05:15:46;77322.56;;;-143.60;34.35
68329;BME280;55182;56.864;60.554;2023-04-15T05:18:11;77316.53;;;-143.60;33.43
68329;BME280;55182;56.864;60.554;2023-04-15T05:20:37;77302.47;;;-143.60;33.53
68329;BME280;55182;56.864;60.554;2023-04-15T05:23:02;77296.44;;;-143.60;33.98
68329;BME280;55182;56.864;60.554;2023-04-15T05:25:28;77290.41;;;-143.60;32.84
68329;BME280;55182;56.864;60.554;2023-04-15T05:27:54;77276.34;;;-143.60;32.42
68329;BME280;55182;56.864;60.554;2023-04-15T05:30:19;77264.28;;;-143.60;32.57
68329;BME280;55182;56.864;60.554;2023-04-15T05:32:45;77244.19;;;-143.60;33.27
68329;BME280;55182;56.864;60.554;2023-04-15T05:35:10;77224.06;;;-143.60;32.99
68329;BME280;55182;56.864;60.554;2023-04-15T05:37:35;77212.00;;;-143.60;32.26
68329;BME280;55182;56.864;60.554;2023-04-15T05:40:01;77212.00;;;-143.60;32.37
68329;BME280;55182;56.864;60.554;2023-04-15T05:42:26;77216.03;;;-143.60;31.67
68329;BME280;55182;56.864;60.554;2023-04-15T05:44:52;77212.00;;;-143.60;31.74
68329;BME280;55182;56.864;60.554;2023-04-15T05:47:17;77201.97;;;-143.60;32.16
68329;BME280;55182;56.864;60.554;2023-04-15T05:49:42;77183.88;;;-143.60;32.36
68329;BME280;55182;56.864;60.554;2023-04-15T05:52:08;77175.84;;;-143.60;31.54
68329;BME280;55182;56.864;60.554;2023-04-15T05:54:33;77155.72;;;-143.60;31.61
68329;BME280;55182;56.864;60.554;2023-04-15T05:56:59;77143.69;;;-143.60;31.85
68329;BME280;55182;56.864;60.554;2023-04-15T05:59:24;77135.63;;;-143.60;32.31
68329;BME280;55182;56.864;60.554;2023-04-15T06:01:50;77119.56;;;-143.60;32.34
68329;BME280;55182;56.864;60.554;2023-04-15T06:04:15;77113.53;;;-143.60;31.87
68329;BME280;55182;56.864;60.554;2023-04-15T06:06:41;77105.47;;;-143.60;30.51
68329;BME280;55182;56.864;60.554;2023-04-15T06:09:06;77099.44;;;-143.60;31.60
68329;BME280;55182;56.864;60.554;2023-04-15T06:11:31;77083.38;;;-143.60;30.94
68329;BME280;55182;56.864;60.554;2023-04-15T06:13:57;77071.31;;;-143.60;31.45
68329;BME280;55182;56.864;60.554;2023-04-15T06:16:22;77063.28;;;-143.60;31.83
68329;BME280;55182;56.864;60.554;2023-04-15T06:18:48;77055.22;;;-143.60;31.99
68329;BME280;55182;56.864;60.554;2023-04-15T06:21:13;77051.22;;;-143.60;32.64
68329;BME280;55182;56.864;60.554;2023-04-15T06:23:39;77045.19;;;-143.60;32.88
68329;BME280;55182;56.864;60.554;2023-04-15T06:26:04;77043.19;;;-143.60;31.98
68329;BME280;55182;56.864;60.554;2023-04-15T06:28:30;77035.13;;;-143.60;32.18
68329;BME280;55182;56.864;60.554;2023-04-15T06:30:55;77021.06;;;-143.60;33.27
68329;BME280;55182;56.864;60.554;2023-04-15T06:33:21;77011.00;;;-143.60;33.57
68329;BME280;55182;56.864;60.554;2023-04-15T06:35:46;76998.97;;;-143.60;32.72
68329;BME280;55182;56.864;60.554;2023-04-15T06:38:12;76974.84;;;-143.60;31.22
68329;BME280;55182;56.864;60.554;2023-04-15T06:40:37;76968.81;;;-143.60;31.52
68329;BME280;55182;56.864;60.554;2023-04-15T06:43:03;76954.75;;;-143.60;31.75
68329;BME280;55182;56.864;60.554;2023-04-15T06:45:28;76926.59;;;-143.60;32.44
68329;BME280;55182;56.864;60.554;2023-04-15T06:47:54;76904.50;;;-143.60;31.67
68329;BME280;55182;56.864;60.554;2023-04-15T06:50:20;76896.44;;;-143.60;30.43
68329;BME280;55182;56.864;60.554;2023-04-15T06:52:46;76886.41;;;-143.60;30.89
68329;BME280;55182;56.864;60.554;2023-04-15T06:55:11;76874.34;;;-143.60;31.97
68329;BME280;55182;56.864;60.554;2023-04-15T06:57:36;76862.28;;;-143.60;30.92
68329;BME280;55182;56.864;60.554;2023-04-15T07:00:02;76850.22;;;-143.60;30.59
68329;BME280;55182;56.864;60.554;2023-04-15T07:02:28;76822.09;;;-143.60;30.45
68329;BME280;55182;56.864;60.554;2023-04-15T07:04:54;76810.03;;;-143.60;29.52
68329;BME280;55182;56.864;60.554;2023-04-15T07:07:20;76810.03;;;-143.60;29.50
68329;BME280;55182;56.864;60.554;2023-04-15T07:09:45;76802.00;;;-143.60;29.62
68329;BME280;55182;56.864;60.554;2023-04-15T07:12:11;76797.97;;;-143.60;28.59
68329;BME280;55182;56.864;60.554;2023-04-15T07:14:36;76791.94;;;-143.60;28.13
68329;BME280;55182;56.864;60.554;2023-04-15T07:17:01;76791.94;;;-143.60;27.94
68329;BME280;55182;56.864;60.554;2023-04-15T07:19:27;76785.91;;;-143.60;28.30
68329;BME280;55182;56.864;60.554;2023-04-15T07:21:52;76765.81;;;-143.60;28.45
68329;BME280;55182;56.864;60.554;2023-04-15T07:24:18;76747.72;;;-143.60;28.61
68329;BME280;55182;56.864;60.554;2023-04-15T07:26:43;76729.63;;;-143.60;28.07
68329;BME280;55182;56.864;60.554;2023-04-15T07:29:09;76715.56;;;-143.60;27.77
68329;BME280;55182;56.864;60.554;2023-04-15T07:31:34;76697.47;;;-143.60;27.85
68329;BME280;55182;56.864;60.554;2023-04-15T07:33:59;76675.38;;;-143.60;28.84
68329;BME280;55182;56.864;60.554;2023-04-15T07:36:25;76661.31;;;-143.60;27.66
68329;BME280;55182;56.864;60.554;2023-04-15T07:38:50;76659.28;;;-143.60;27.55
68329;BME280;55182;56.864;60.554;2023-04-15T07:41:16;76639.19;;;-143.60;26.62
68329;BME280;55182;56.864;60.554;2023-04-15T07:43:41;76637.19;;;-143.60;26.10
68329;BME280;55182;56.864;60.554;2023-04-15T07:46:07;76637.19;;;-143.60;25.80
68329;BME280;55182;56.864;60.554;2023-04-15T07:48:32;76625.13;;;-143.60;26.61
68329;BME280;55182;56.864;60.554;2023-04-15T07:50:57;76609.06;;;-143.60;27.36
68329;BME280;55182;56.864;60.554;2023-04-15T07:53:23;76588.97;;;-143.60;27.73
68329;BME280;55182;56.864;60.554;2023-04-15T07:55:48;76576.91;;;-143.60;26.35
68329;BME280;55182;56.864;60.554;2023-04-15T07:58:14;76562.84;;;-143.60;26.29
68329;BME280;55182;56.864;60.554;2023-04-15T08:00:39;76556.81;;;-143.60;26.48
68329;BME280;55182;56.864;60.554;2023-04-15T08:03:05;76550.78;;;-143.60;26.20
68329;BME280;55182;56.864;60.554;2023-04-15T08:05:30;76548.75;;;-143.60;26.39
68329;BME280;55182;56.864;60.554;2023-04-15T08:07:55;76544.75;;;-143.60;26.35
68329;BME280;55182;56.864;60.554;2023-04-15T08:10:21;76540.72;;;-143.60;26.46
68329;BME280;55182;56.864;60.554;2023-04-15T08:12:47;76524.66;;;-143.60;26.67
68329;BME280;55182;56.864;60.554;2023-04-15T08:15:12;76492.50;;;-143.60;26.96
68329;BME280;55182;56.864;60.554;2023-04-15T08:17:38;76476.41;;;-143.60;26.60
68329;BME280;55182;56.864;60.554;2023-04-15T08:20:04;76456.31;;;-143.60;26.96
68329;BME280;55182;56.864;60.554;2023-04-15T08:22:29;76434.22;;;-143.60;26.21
68329;BME280;55182;56.864;60.554;2023-04-15T08:24:55;76418.13;;;-143.60;26.26
68329;BME280;55182;56.864;60.554;2023-04-15T08:27:20;76400.06;;;-143.60;26.82
68329;BME280;55182;56.864;60.554;2023-04-15T08:29:45;76385.97;;;-143.60;26.66
68329;BME280;55182;56.864;60.554;2023-04-15T08:32:11;76385.97;;;-143.60;26.57
68329;BME280;55182;56.864;60.554;2023-04-15T08:34:37;76365.88;;;-143.60;26.53
68329;BME280;55182;56.864;60.554;2023-04-15T08:37:02;76375.94;;;-143.60;25.80
68329;BME280;55182;56.864;60.554;2023-04-15T08:39:28;76371.91;;;-143.60;25.20
68329;BME280;55182;56.864;60.554;2023-04-15T08:42:00;76355.84;;;-143.60;26.04
68329;BME280;55182;56.864;60.554;2023-04-15T08:44:25;76329.72;;;-143.60;26.18
68329;BME280;55182;56.864;60.554;2023-04-15T08:46:53;76295.56;;;-143.60;25.90
68329;BME280;55182;56.864;60.554;2023-04-15T08:49:19;76263.41;;;-143.60;26.07
68329;BME280;55182;56.864;60.554;2023-04-15T08:51:45;76251.34;;;-143.60;25.64
68329;BME280;55182;56.864;60.554;2023-04-15T08:54:11;76223.22;;;-143.60;25.83
68329;BME280;55182;56.864;60.554;2023-04-15T08:56:37;76219.19;;;-143.60;24.06
68329;BME280;55182;56.864;60.554;2023-04-15T08:59:03;76227.22;;;-143.60;24.54
68329;BME280;55182;56.864;60.554;2023-04-15T09:01:28;76227.22;;;-143.60;24.01
68329;BME280;55182;56.864;60.554;2023-04-15T09:03:54;76231.25;;;-143.60;24.80
68329;BME280;55182;56.864;60.554;2023-04-15T09:06:20;76227.22;;;-143.60;24.86
68329;BME280;55182;56.864;60.554;2023-04-15T09:08:46;76203.13;;;-143.60;24.94
68329;BME280;55182;56.864;60.554;2023-04-15T09:11:12;76179.00;;;-143.60;25.10
68329;BME280;55182;56.864;60.554;2023-04-15T09:13:37;76142.81;;;-143.60;25.60
68329;BME280;55182;56.864;60.554;2023-04-15T09:16:06;76118.72;;;-143.60;24.78
68329;BME280;55182;56.864;60.554;2023-04-15T09:18:35;76110.69;;;-143.60;24.68
68329;BME280;55182;56.864;60.554;2023-04-15T09:21:11;76104.66;;;-143.60;24.72
68329;BME280;55182;56.864;60.554;2023-04-15T09:23:37;76098.63;;;-143.60;25.13
68329;BME280;55182;56.864;60.554;2023-04-15T09:26:03;76066.47;;;-143.60;25.00
68329;BME280;55182;56.864;60.554;2023-04-15T09:28:29;76036.31;;;-143.60;24.12
68329;BME280;55182;56.864;60.554;2023-04-15T09:30:58;76030.31;;;-143.60;23.59
68329;BME280;55182;56.864;60.554;2023-04-15T09:33:24;76030.31;;;-143.60;24.12
68329;BME280;55182;56.864;60.554;2023-04-15T09:36:00;76026.28;;;-143.60;24.19
68329;BME280;55182;56.864;60.554;2023-04-15T09:38:25;76012.22;;;-143.60;24.14
68329;BME280;55182;56.864;60.554;2023-04-15T09:40:51;76010.19;;;-143.60;23.46
68329;BME280;55182;56.864;60.554;2023-04-15T09:43:17;75986.09;;;-143.60;23.75
68329;BME280;55182;56.864;60.554;2023-04-15T09:45:52;75949.91;;;-143.60;24.09
68329;BME280;55182;56.864;60.554;2023-04-15T09:48:21;75879.59;;;-143.60;24.61
68329;BME280;55182;56.864;60.554;2023-04-15T09:50:48;75805.25;;;-143.60;23.00
68329;BME280;55182;56.864;60.554;2023-04-15T09:53:17;75773.09;;;-143.60;23.52
68329;BME280;55182;56.864;60.554;2023-04-15T09:55:44;75797.22;;;-143.60;22.67
68329;BME280;55182;56.864;60.554;2023-04-15T09:58:16;75873.56;;;-143.60;22.94
68329;BME280;55182;56.864;60.554;2023-04-15T10:00:42;75925.81;;;-143.60;23.66
68329;BME280;55182;56.864;60.554;2023-04-15T10:03:08;75966.00;;;-143.60;23.59
68329;BME280;55182;56.864;60.554;2023-04-15T10:05:33;75992.13;;;-143.60;24.01
68329;BME280;55182;56.864;60.554;2023-04-15T10:07:59;76008.19;;;-143.60;23.93
68329;BME280;55182;56.864;60.554;2023-04-15T10:10:24;76028.28;;;-143.60;23.98
68329;BME280;55182;56.864;60.554;2023-04-15T10:12:50;76038.34;;;-143.60;24.23
68329;BME280;55182;56.864;60.554;2023-04-15T10:15:17;76032.31;;;-143.60;23.81
68329;BME280;55182;56.864;60.554;2023-04-15T10:17:43;76030.31;;;-143.60;23.98
68329;BME280;55182;56.864;60.554;2023-04-15T10:20:09;76034.31;;;-143.60;23.97
68329;BME280;55182;56.864;60.554;2023-04-15T10:22:34;76032.31;;;-143.60;24.33
68329;BME280;55182;56.864;60.554;2023-04-15T10:25:00;76022.25;;;-143.60;24.12
68329;BME280;55182;56.864;60.554;2023-04-15T10:27:27;76004.19;;;-143.60;24.50
68329;BME280;55182;56.864;60.554;2023-04-15T10:29:52;75996.13;;;-143.60;23.88
68329;BME280;55182;56.864;60.554;2023-04-15T10:32:18;75988.09;;;-143.60;23.92
68329;BME280;55182;56.864;60.554;2023-04-15T10:34:45;75974.03;;;-143.60;23.21
68329;BME280;55182;56.864;60.554;2023-04-15T10:37:11;75964.00;;;-143.60;23.26
68329;BME280;55182;56.864;60.554;2023-04-15T10:42:05;75951.94;;;-143.60;23.47
68329;BME280;55182;56.864;60.554;2023-04-15T10:44:31;75945.91;;;-143.60;23.43
68329;BME280;55182;56.864;60.554;2023-04-15T10:46:57;75919.78;;;-143.60;23.84
68329;BME280;55182;56.864;60.554;2023-04-15T10:49:25;75923.81;;;-143.60;23.04
68329;BME280;55182;56.864;60.554;2023-04-15T10:51:51;75917.78;;;-143.60;23.05
68329;BME280;55182;56.864;60.554;2023-04-15T10:57:06;75905.72;;;-143.60;22.99
68329;BME280;55182;56.864;60.554;2023-04-15T10:59:32;75881.59;;;-143.60;23.43
68329;BME280;55182;56.864;60.554;2023-04-15T11:02:00;75881.59;;;-143.60;23.52
68329;BME280;55182;56.864;60.554;2023-04-15T11:07:10;75871.56;;;-143.60;23.18
68329;BME280;55182;56.864;60.554;2023-04-15T11:09:36;75871.56;;;-143.60;23.59
68329;BME280;55182;56.864;60.554;2023-04-15T11:14:29;75845.44;;;-143.60;23.84
68329;BME280;55182;56.864;60.554;2023-04-15T11:16:57;75837.41;;;-143.60;24.37
68329;BME280;55182;56.864;60.554;2023-04-15T11:19:22;75823.34;;;-143.60;24.33
68329;BME280;55182;56.864;60.554;2023-04-15T11:21:47;75783.16;;;-143.60;24.03
68329;BME280;55182;56.864;60.554;2023-04-15T11:24:22;75797.22;;;-143.60;24.19
68329;BME280;55182;56.864;60.554;2023-04-15T11:26:48;75797.22;;;-143.60;24.25
68329;BME280;55182;56.864;60.554;2023-04-15T11:29:16;75799.22;;;-143.60;23.92
68329;BME280;55182;56.864;60.554;2023-04-15T11:31:42;75799.22;;;-143.60;24.39
68329;BME280;55182;56.864;60.554;2023-04-15T11:34:11;75793.19;;;-143.60;24.17
68329;BME280;55182;56.864;60.554;2023-04-15T11:36:36;75787.16;;;-143.60;23.88
68329;BME280;55182;56.864;60.554;2023-04-15T11:39:03;75771.09;;;-143.60;24.30
68329;BME280;55182;56.864;60.554;2023-04-15T11:41:31;75765.06;;;-143.60;24.26
68329;BME280;55182;56.864;60.554;2023-04-15T11:43:56;75765.06;;;-143.60;23.87
68329;BME280;55182;56.864;60.554;2023-04-15T11:46:27;75742.97;;;-143.60;23.67
68329;BME280;55182;56.864;60.554;2023-04-15T11:48:53;75751.00;;;-143.60;23.78
68329;BME280;55182;56.864;60.554;2023-04-15T11:51:18;75751.00;;;-143.60;24.18
68329;BME280;55182;56.864;60.554;2023-04-15T11:53:44;75738.94;;;-143.60;23.74
68329;BME280;55182;56.864;60.554;2023-04-15T11:56:16;75714.84;;;-143.60;24.13
68329;BME280;55182;56.864;60.554;2023-04-15T11:58:42;75712.81;;;-143.60;23.79
68329;BME280;55182;56.864;60.554;2023-04-15T12:01:08;75668.63;;;-143.60;23.40
68329;BME280;55182;56.864;60.554;2023-04-15T12:03:43;75513.91;;;-143.60;22.79
68329;BME280;55182;56.864;60.554;2023-04-15T12:06:16;75351.16;;;-143.60;22.13
68329;BME280;55182;56.864;60.554;2023-04-15T12:11:29;75152.28;;;-143.60;21.30
68329;BME280;55182;56.864;60.554;2023-04-15T12:13:56;75069.91;;;-143.60;21.00
68329;BME280;55182;56.864;60.554;2023-04-15T12:16:22;75013.66;;;-143.60;20.49
68329;BME280;55182;56.864;60.554;2023-04-15T12:18:51;75007.63;;;-143.60;20.41
68329;BME280;55182;56.864;60.554;2023-04-15T12:21:20;74975.50;;;-143.60;20.56
68329;BME280;55182;56.864;60.554;2023-04-15T12:23:49;74901.16;;;-143.60;20.23
68329;BME280;55182;56.864;60.554;2023-04-15T12:26:15;74850.94;;;-143.60;19.92
68329;BME280;55182;56.864;60.554;2023-04-15T12:28:41;74854.97;;;-143.60;20.33
68329;BME280;55182;56.864;60.554;2023-04-15T12:31:06;74830.84;;;-143.60;20.32
68329;BME280;55182;56.864;60.554;2023-04-15T12:33:32;74784.66;;;-143.60;20.24
68329;BME280;55182;56.864;60.554;2023-04-15T12:35:58;74784.66;;;-143.60;20.15
68329;BME280;55182;56.864;60.554;2023-04-15T12:38:23;74806.75;;;-143.60;19.90